Aérodrome :
LOGIN :

S'inscrire | Disclaimer

   EN    FR    IT 

 










Légende :    VFR   VFR Marginal   IFR   IFR Intensif   IFR Très Intensif
Visi : 
Plafond : 
>= 8 km
>= 3000ft
5 à 8 km
1000 à 3000 ft
1500m à 5 km
500 à 1000 ft
800 à 1500m
200 à 500 ft
< 800m
< 200 ft
Symboles :   Orages  Brouillard  Fortes neiges  Fortes précipitations  Vent > 20 kt
SIGMETs :   Divers  Orages  Givrage  Turbulence  Onde Orograph.  Cendres Volcan.







- Altitude de l'aérodrome : 302 ft
- Code IATA : MAH


LEMH - Menorca

DERNIER METAR :
  • 222000Z 02014KT 9999 FEW028 07/01 Q1006

METARs EXPIRÉS :
  • 221930Z 01013KT 9999 FEW028 07/02 Q1006
  • 221900Z 01014KT 9999 FEW028 07/01 Q1006
  • 221830Z 01014KT 340V040 9999 FEW028 07/01 Q1006
  • 221800Z 01012KT 9999 FEW028 07/01 Q1005
  • 221730Z 01015KT 340V040 9999 FEW028 07/01 Q1005

TAF TAF LEMH
Valide du 22 à 15h jusqu'au 23 à 15h UTC


221400Z 2215/2315 36015KT 9999 BKN030 TX12/2313Z TN05/2306Z
TEMPO 2215/2218 01015G25KT
BECMG 2218/2220 36009KT
PROB40
TEMPO 2302/2308 FEW020TCU BKN030
BECMG 2306/2308 36015KT
TEMPO 2308/2315 26015G25KT
Pas de NOTAMs connus pour ce terrain.
1 SIGMET publié pour la FIR Barcelona (LECB) :
 
Turbulence forte
LECB SIGMET 5 VALID 222000/222400 LEVA
LECB BARCELONA FIR/UIR SEV TURB FCST WI N4240 E00140 - N3810 E00310 - N3730 E001 - N4040 W00050 - N4250 W00002 - N4240 E00140 FL160/270 MOV W 10KT NC=



MET'MAP, la Météo Aéronautique d'un coup d'oeil ! - Copyright ORBIFLY Décembre 2007 - Disclaimer

ORBIFLY MET'MAP TEAM :

Programmation & Développement : Alexandra Zaïnal
Conception & Développement : Baudouin d'Aumeries
Co-Programmation & Développement : Marc-Olivier Méhu
Soutien technique & logistique : Manuel Goepfert

Contact : metmap@orbifly.com




SOURCES & CREDITS :

   NOAA